createdAt,value
2023-01-17T00:03:23.303Z,7.87
2023-01-17T00:08:55.323Z,8.00
2023-01-17T00:14:35.179Z,6.43
2023-01-17T00:19:56.017Z,9.00
2023-01-17T00:25:17.279Z,8.55
2023-01-17T00:30:19.958Z,7.27
2023-01-17T00:35:23.898Z,6.22
2023-01-17T00:40:26.481Z,7.57
2023-01-17T00:45:48.405Z,5.30
2023-01-17T00:51:09.470Z,7.57
2023-01-17T00:56:30.664Z,10.33
2023-01-17T01:01:52.546Z,12.02
2023-01-17T01:07:13.690Z,8.40
2023-01-17T01:12:35.200Z,5.50
2023-01-17T01:17:56.408Z,5.75
2023-01-17T01:23:17.536Z,8.50
2023-01-17T01:28:38.558Z,6.65
2023-01-17T01:33:41.256Z,7.85
2023-01-17T01:38:43.878Z,9.53
2023-01-17T01:43:55.039Z,7.72
2023-01-17T01:49:17.349Z,7.77
2023-01-17T01:54:28.717Z,10.45
2023-01-17T01:59:36.135Z,7.13
2023-01-17T02:04:39.426Z,10.73
2023-01-17T02:09:42.321Z,7.53
2023-01-17T02:14:47.266Z,5.43
2023-01-17T02:20:23.344Z,9.70
2023-01-17T02:25:50.684Z,10.75
2023-01-17T02:31:03.362Z,7.37
2023-01-17T02:36:22.912Z,9.30
2023-01-17T02:41:41.832Z,11.20
2023-01-17T02:46:52.534Z,8.95
2023-01-17T02:52:12.027Z,8.15
2023-01-17T02:57:39.259Z,11.87
2023-01-17T03:02:57.040Z,9.68
2023-01-17T03:08:00.849Z,8.40
2023-01-17T03:13:04.755Z,6.40
2023-01-17T03:18:13.181Z,9.32
2023-01-17T03:23:16.464Z,8.80
2023-01-17T03:28:19.727Z,6.28
2023-01-17T03:33:22.461Z,9.70
2023-01-17T03:38:43.139Z,7.53
2023-01-17T03:43:46.429Z,7.60
2023-01-17T03:48:52.286Z,10.60
2023-01-17T03:53:54.871Z,8.10
2023-01-17T03:58:58.867Z,8.53
2023-01-17T04:04:01.479Z,9.07
2023-01-17T04:09:04.771Z,7.80
2023-01-17T04:14:07.287Z,6.20
2023-01-17T04:19:13.922Z,7.57
2023-01-17T04:24:17.856Z,7.47
2023-01-17T04:29:20.749Z,7.15
2023-01-17T04:34:23.660Z,8.95
2023-01-17T04:39:29.570Z,5.60
2023-01-17T04:44:35.290Z,11.32
2023-01-17T04:49:38.400Z,9.53
2023-01-17T04:54:42.352Z,10.07
2023-01-17T04:59:45.599Z,13.48
2023-01-17T05:04:48.122Z,10.47
2023-01-17T05:09:51.994Z,8.18
2023-01-17T05:14:54.569Z,7.97
2023-01-17T05:19:59.354Z,8.90
2023-01-17T05:25:02.749Z,7.00
2023-01-17T05:30:08.109Z,13.80
2023-01-17T05:35:10.679Z,6.82
2023-01-17T05:40:17.125Z,8.27
2023-01-17T05:45:22.127Z,4.03
2023-01-17T05:50:27.180Z,16.73
2023-01-17T05:55:30.894Z,9.80
2023-01-17T06:00:37.553Z,4.35
2023-01-17T06:05:40.543Z,6.87
2023-01-17T06:10:46.053Z,6.90
2023-01-17T06:15:48.972Z,5.25
2023-01-17T06:20:54.779Z,4.80
2023-01-17T06:25:57.576Z,10.30
2023-01-17T06:31:00.236Z,4.97
2023-01-17T06:36:02.767Z,6.78
2023-01-17T06:41:05.973Z,4.90
2023-01-17T06:46:09.164Z,9.70
2023-01-17T06:51:12.408Z,7.43
2023-01-17T06:56:15.708Z,7.97
2023-01-17T07:01:19.240Z,6.85
2023-01-17T07:06:22.071Z,6.85
2023-01-17T07:11:24.705Z,7.93
2023-01-17T07:16:27.247Z,7.05
2023-01-17T07:21:32.110Z,7.33
2023-01-17T07:26:34.913Z,7.47
2023-01-17T07:31:38.930Z,7.40
2023-01-17T07:36:41.460Z,8.03
2023-01-17T07:41:45.169Z,8.38
2023-01-17T07:46:47.848Z,7.30
2023-01-17T07:51:53.344Z,9.73
2023-01-17T07:56:55.883Z,8.27
2023-01-17T08:01:59.212Z,8.43
2023-01-17T08:07:02.603Z,7.97
2023-01-17T08:12:05.317Z,10.73
2023-01-17T08:17:12.927Z,8.88
2023-01-17T08:22:15.409Z,9.93
2023-01-17T08:27:17.856Z,9.60
2023-01-17T08:32:21.655Z,10.38
2023-01-17T08:37:25.160Z,11.03
2023-01-17T08:42:30.299Z,9.35
2023-01-17T08:47:33.933Z,8.35
2023-01-17T08:52:36.476Z,9.73
2023-01-17T08:57:38.932Z,10.40
2023-01-17T09:08:09.870Z,8.55
2023-01-17T09:13:12.524Z,9.85
2023-01-17T09:18:15.067Z,7.53
2023-01-17T09:28:42.995Z,8.17
2023-01-17T09:33:45.622Z,8.60
2023-01-17T09:38:48.502Z,7.82
2023-01-17T09:44:29.429Z,7.97
2023-01-17T09:49:38.288Z,8.25
2023-01-17T09:54:46.843Z,9.77
2023-01-17T10:00:15.188Z,7.55
2023-01-17T10:05:36.748Z,9.25
2023-01-17T10:11:09.896Z,7.17
2023-01-17T10:16:18.426Z,8.30
2023-01-17T10:21:39.544Z,9.57
2023-01-17T10:26:44.241Z,8.60
2023-01-17T10:31:54.548Z,6.68
2023-01-17T10:37:04.467Z,6.87
2023-01-17T10:42:35.082Z,7.72
2023-01-17T10:47:39.718Z,8.53
2023-01-17T10:53:00.341Z,8.57
2023-01-17T10:58:04.044Z,8.05
2023-01-17T11:03:07.855Z,11.10
2023-01-17T11:08:16.501Z,6.70
2023-01-17T11:13:37.204Z,10.70
2023-01-17T11:18:51.354Z,7.50
2023-01-17T11:23:57.700Z,6.80
2023-01-17T11:29:37.142Z,11.20
2023-01-17T11:34:39.706Z,6.05
2023-01-17T11:39:43.673Z,16.53
2023-01-17T11:44:50.700Z,8.55
2023-01-17T11:49:53.238Z,5.10
2023-01-17T11:54:59.014Z,10.77
2023-01-17T12:00:25.268Z,6.40
2023-01-17T12:05:47.072Z,10.47
2023-01-17T12:11:14.910Z,14.43
2023-01-17T12:16:32.311Z,6.93
2023-01-17T12:22:00.451Z,10.40
2023-01-17T12:27:05.890Z,8.82
2023-01-17T12:32:36.015Z,8.30
2023-01-17T12:37:42.689Z,10.55
2023-01-17T12:43:14.923Z,17.30
2023-01-17T12:48:21.989Z,9.13
2023-01-17T12:53:59.663Z,10.15
2023-01-17T12:59:50.823Z,10.37
2023-01-17T13:05:05.588Z,8.18
2023-01-17T13:10:08.129Z,6.85
2023-01-17T13:15:25.448Z,10.57
2023-01-17T13:20:29.146Z,7.95
2023-01-17T13:25:45.371Z,8.13
2023-01-17T13:30:59.740Z,10.57
2023-01-17T13:36:20.558Z,11.18
2023-01-17T13:41:35.940Z,10.30
2023-01-17T13:46:59.075Z,11.15
2023-01-17T13:52:19.943Z,7.17
2023-01-17T13:57:40.284Z,23.23
2023-01-17T14:02:43.951Z,11.38
2023-01-17T14:07:53.984Z,19.37
2023-01-17T14:12:57.291Z,8.93
2023-01-17T14:18:00.668Z,9.60
2023-01-17T14:23:20.931Z,8.20
2023-01-17T14:28:29.531Z,11.30
2023-01-17T14:33:39.757Z,11.07
2023-01-17T14:38:43.916Z,10.25
2023-01-17T14:43:48.722Z,14.37
2023-01-17T14:49:20.842Z,8.55
2023-01-17T14:54:23.800Z,7.05
2023-01-17T14:59:26.401Z,6.93
2023-01-17T15:04:39.928Z,16.55
2023-01-17T15:09:44.789Z,8.43
2023-01-17T15:14:47.395Z,9.95
2023-01-17T15:19:56.777Z,5.10
2023-01-17T15:25:00.408Z,4.87
2023-01-17T15:30:04.456Z,9.13
2023-01-17T15:35:08.407Z,7.90
2023-01-17T15:40:19.038Z,9.77
2023-01-17T15:45:27.438Z,5.82
2023-01-17T15:50:32.223Z,14.90
2023-01-17T15:55:37.833Z,3.50
2023-01-17T16:00:42.207Z,3.73
2023-01-17T16:05:45.055Z,10.75
2023-01-17T16:10:47.566Z,5.70
2023-01-17T16:15:50.250Z,5.20
2023-01-17T16:21:05.751Z,6.88
2023-01-17T16:26:11.079Z,7.13
2023-01-17T16:31:13.836Z,4.72
2023-01-17T16:36:17.417Z,5.45
2023-01-17T16:41:21.092Z,5.33
2023-01-17T16:46:23.873Z,5.55
2023-01-17T16:51:26.491Z,11.23
2023-01-17T16:56:29.075Z,4.95
2023-01-17T17:01:35.359Z,5.60
2023-01-17T17:06:38.171Z,7.90
2023-01-17T17:11:43.156Z,8.48
2023-01-17T17:16:45.800Z,4.13
2023-01-17T17:21:49.253Z,4.15
2023-01-17T17:26:51.765Z,3.75
2023-01-17T17:31:55.639Z,10.53
2023-01-17T17:36:58.182Z,6.72
2023-01-17T17:42:00.628Z,7.87
2023-01-17T17:47:04.307Z,5.07
2023-01-17T17:52:07.680Z,4.68
2023-01-17T17:57:10.181Z,8.20
2023-01-17T18:02:12.669Z,5.45
2023-01-17T18:07:15.152Z,8.23
2023-01-17T18:12:17.631Z,4.90
2023-01-17T18:17:20.601Z,8.45
2023-01-17T18:22:23.299Z,8.63
2023-01-17T18:27:25.851Z,7.38
2023-01-17T18:32:28.307Z,4.10
2023-01-17T18:37:30.835Z,6.43
2023-01-17T18:42:33.305Z,5.20
2023-01-17T18:47:37.989Z,10.67
2023-01-17T18:52:41.139Z,3.15
2023-01-17T18:57:43.613Z,5.83
2023-01-17T19:02:49.011Z,5.20
2023-01-17T19:07:54.401Z,12.48
2023-01-17T19:12:56.967Z,7.17
2023-01-17T19:17:59.492Z,4.45
2023-01-17T19:23:02.005Z,4.50
2023-01-17T19:28:04.662Z,5.90
2023-01-17T19:33:07.186Z,4.65
2023-01-17T19:38:09.691Z,5.77
2023-01-17T19:43:12.207Z,4.20
2023-01-17T19:48:14.686Z,3.67
2023-01-17T19:53:17.448Z,8.93
2023-01-17T19:58:19.878Z,11.27
2023-01-17T20:03:22.434Z,4.97
2023-01-17T20:08:24.928Z,7.00
2023-01-17T20:13:27.382Z,5.37
2023-01-17T20:18:30.341Z,7.32
2023-01-17T20:23:36.719Z,7.03
2023-01-17T20:28:40.952Z,9.20
2023-01-17T20:33:45.014Z,15.85
2023-01-17T20:38:49.128Z,7.17
2023-01-17T20:43:54.413Z,16.52
2023-01-17T20:48:58.236Z,23.50
2023-01-17T20:54:05.070Z,11.83
2023-01-17T20:59:09.789Z,12.10
2023-01-17T21:04:13.253Z,9.37
2023-01-17T21:09:17.413Z,17.80
2023-01-17T21:14:21.890Z,26.17
2023-01-17T21:19:24.493Z,17.83
2023-01-17T21:24:29.492Z,22.45
2023-01-17T21:29:34.524Z,38.47
2023-01-17T21:34:37.008Z,20.67
2023-01-17T21:39:39.698Z,22.17
2023-01-17T21:44:42.323Z,52.53
2023-01-17T21:49:46.045Z,19.75
2023-01-17T21:55:07.284Z,48.77
2023-01-17T22:00:14.772Z,38.95
2023-01-17T22:05:20.973Z,52.03
2023-01-17T22:10:24.512Z,47.00
2023-01-17T22:15:27.321Z,37.78
2023-01-17T22:20:29.975Z,16.93
2023-01-17T22:25:32.669Z,31.10
2023-01-17T22:30:35.257Z,33.97
2023-01-17T22:35:37.694Z,35.83
2023-01-17T22:40:40.172Z,32.03
2023-01-17T22:45:42.739Z,38.13
2023-01-17T22:50:45.936Z,29.88
2023-01-17T22:55:48.652Z,31.75
2023-01-17T23:00:51.371Z,30.93
2023-01-17T23:05:54.319Z,18.17
2023-01-17T23:11:35.554Z,20.47
2023-01-17T23:16:58.221Z,21.65
2023-01-17T23:22:19.482Z,25.10
2023-01-17T23:27:47.120Z,34.57
2023-01-17T23:32:51.228Z,26.73
2023-01-17T23:38:12.669Z,29.33
2023-01-17T23:43:30.126Z,9.07
2023-01-17T23:48:32.717Z,17.35
2023-01-17T23:53:37.051Z,20.53
2023-01-17T23:58:40.754Z,11.48
